KALN/ALN METAR and TAF weather

Enter ICAO airport designator
Station Type Date Time Source
KALN METAR 2018/01/17 06:35 UTC NOAA

KALN 170635Z AUTO 26006KT 10SM CLR M15/M16 A3067 RMK AO2 T11471165


Station Type Date Time Source
KALN Decoded METAR 2018/01/17 06:35 UTC NOAA

Alton/St. Louis, St. Louis Regional Airport, IL, United States (KALN) 38-54N 090-03W
Jan 17, 2018 - 01:35 AM EST / 2018.01.17 0635 UTC
Wind: from the W (260 degrees) at 7 MPH (6 KT):0
Visibility: 10 mile(s):0
Sky conditions: clear
Temperature: 5.5 F (-14.7 C)
Windchill: -5 F (-21 C):2
Dew Point: 2.3 F (-16.5 C)
Relative Humidity: 86%
Pressure (altimeter): 30.67 in. Hg (1038 hPa)
ob: KALN 170635Z AUTO 26006KT 10SM CLR M15/M16 A3067 RMK AO2 T11471165
cycle: 6

Station Type Date Time Source
KALN TAF UTC NOAA

Error!


Example: see airport list